sensor_id;sensor_type;location;lat;lon;timestamp;P1;durP1;ratioP1;P2;durP2;ratioP2
18304;SDS011;9278;52.156;21.048;2023-01-19T00:01:07;47.53;;;22.60;;
18304;SDS011;9278;52.156;21.048;2023-01-19T00:03:35;50.97;;;23.30;;
18304;SDS011;9278;52.156;21.048;2023-01-19T00:06:04;47.83;;;22.27;;
18304;SDS011;9278;52.156;21.048;2023-01-19T00:08:32;48.77;;;22.53;;
18304;SDS011;9278;52.156;21.048;2023-01-19T00:11:01;43.33;;;21.87;;
18304;SDS011;9278;52.156;21.048;2023-01-19T00:13:30;51.40;;;23.63;;
18304;SDS011;9278;52.156;21.048;2023-01-19T00:15:59;51.85;;;24.00;;
18304;SDS011;9278;52.156;21.048;2023-01-19T00:18:28;47.95;;;23.33;;
18304;SDS011;9278;52.156;21.048;2023-01-19T00:20:57;53.00;;;23.88;;
18304;SDS011;9278;52.156;21.048;2023-01-19T00:23:25;49.55;;;22.67;;
18304;SDS011;9278;52.156;21.048;2023-01-19T00:25:53;50.47;;;23.43;;
18304;SDS011;9278;52.156;21.048;2023-01-19T00:28:21;50.40;;;23.27;;
18304;SDS011;9278;52.156;21.048;2023-01-19T00:30:49;51.50;;;23.58;;
18304;SDS011;9278;52.156;21.048;2023-01-19T00:33:18;49.05;;;23.55;;
18304;SDS011;9278;52.156;21.048;2023-01-19T00:35:51;50.00;;;22.77;;
18304;SDS011;9278;52.156;21.048;2023-01-19T00:38:20;48.73;;;22.57;;
18304;SDS011;9278;52.156;21.048;2023-01-19T00:40:48;49.47;;;23.00;;
18304;SDS011;9278;52.156;21.048;2023-01-19T00:43:16;48.38;;;22.48;;
18304;SDS011;9278;52.156;21.048;2023-01-19T00:45:44;50.38;;;24.02;;
18304;SDS011;9278;52.156;21.048;2023-01-19T00:48:12;48.75;;;23.30;;
18304;SDS011;9278;52.156;21.048;2023-01-19T00:50:40;47.10;;;23.37;;
18304;SDS011;9278;52.156;21.048;2023-01-19T00:53:10;49.00;;;23.20;;
18304;SDS011;9278;52.156;21.048;2023-01-19T00:55:38;46.13;;;22.85;;
18304;SDS011;9278;52.156;21.048;2023-01-19T00:58:07;46.73;;;23.13;;
18304;SDS011;9278;52.156;21.048;2023-01-19T01:00:35;52.00;;;24.02;;
18304;SDS011;9278;52.156;21.048;2023-01-19T01:03:03;54.07;;;24.07;;
18304;SDS011;9278;52.156;21.048;2023-01-19T01:05:31;52.03;;;23.17;;
18304;SDS011;9278;52.156;21.048;2023-01-19T01:07:59;55.07;;;24.17;;
18304;SDS011;9278;52.156;21.048;2023-01-19T01:10:29;48.93;;;23.37;;
18304;SDS011;9278;52.156;21.048;2023-01-19T01:12:57;48.35;;;23.20;;
18304;SDS011;9278;52.156;21.048;2023-01-19T01:15:48;50.53;;;24.17;;
18304;SDS011;9278;52.156;21.048;2023-01-19T01:18:16;51.95;;;23.58;;
18304;SDS011;9278;52.156;21.048;2023-01-19T01:20:44;50.03;;;22.90;;
18304;SDS011;9278;52.156;21.048;2023-01-19T01:23:13;49.27;;;22.57;;
18304;SDS011;9278;52.156;21.048;2023-01-19T01:25:43;50.67;;;22.77;;
18304;SDS011;9278;52.156;21.048;2023-01-19T01:28:11;48.77;;;23.00;;
18304;SDS011;9278;52.156;21.048;2023-01-19T01:30:40;52.90;;;23.33;;
18304;SDS011;9278;52.156;21.048;2023-01-19T01:33:09;49.28;;;22.48;;
18304;SDS011;9278;52.156;21.048;2023-01-19T01:35:38;45.97;;;22.25;;
18304;SDS011;9278;52.156;21.048;2023-01-19T01:38:07;50.63;;;23.50;;
18304;SDS011;9278;52.156;21.048;2023-01-19T01:40:37;53.80;;;24.27;;
18304;SDS011;9278;52.156;21.048;2023-01-19T01:43:09;53.80;;;23.90;;
18304;SDS011;9278;52.156;21.048;2023-01-19T01:45:39;54.30;;;25.08;;
18304;SDS011;9278;52.156;21.048;2023-01-19T01:48:08;50.87;;;23.60;;
18304;SDS011;9278;52.156;21.048;2023-01-19T01:50:40;51.57;;;23.63;;
18304;SDS011;9278;52.156;21.048;2023-01-19T01:53:33;55.90;;;24.40;;
18304;SDS011;9278;52.156;21.048;2023-01-19T01:56:03;55.00;;;24.02;;
18304;SDS011;9278;52.156;21.048;2023-01-19T01:58:36;55.23;;;23.67;;
18304;SDS011;9278;52.156;21.048;2023-01-19T02:01:07;54.93;;;25.30;;
18304;SDS011;9278;52.156;21.048;2023-01-19T02:03:54;56.50;;;24.73;;
18304;SDS011;9278;52.156;21.048;2023-01-19T02:06:23;61.47;;;26.53;;
18304;SDS011;9278;52.156;21.048;2023-01-19T02:08:53;52.93;;;24.07;;
18304;SDS011;9278;52.156;21.048;2023-01-19T02:11:43;54.23;;;24.93;;
18304;SDS011;9278;52.156;21.048;2023-01-19T02:14:30;57.23;;;24.63;;
18304;SDS011;9278;52.156;21.048;2023-01-19T02:16:58;54.30;;;23.47;;
18304;SDS011;9278;52.156;21.048;2023-01-19T02:19:29;56.77;;;25.27;;
18304;SDS011;9278;52.156;21.048;2023-01-19T02:22:02;54.50;;;24.37;;
18304;SDS011;9278;52.156;21.048;2023-01-19T02:24:35;54.07;;;23.87;;
18304;SDS011;9278;52.156;21.048;2023-01-19T02:27:04;53.80;;;23.30;;
18304;SDS011;9278;52.156;21.048;2023-01-19T02:29:34;53.70;;;22.97;;
18304;SDS011;9278;52.156;21.048;2023-01-19T02:32:02;55.33;;;24.27;;
18304;SDS011;9278;52.156;21.048;2023-01-19T02:34:31;51.43;;;23.80;;
18304;SDS011;9278;52.156;21.048;2023-01-19T02:37:02;51.13;;;23.47;;
18304;SDS011;9278;52.156;21.048;2023-01-19T02:39:33;51.93;;;24.97;;
18304;SDS011;9278;52.156;21.048;2023-01-19T02:42:08;51.13;;;23.20;;
18304;SDS011;9278;52.156;21.048;2023-01-19T02:44:39;51.47;;;24.50;;
18304;SDS011;9278;52.156;21.048;2023-01-19T02:47:11;50.33;;;24.10;;
18304;SDS011;9278;52.156;21.048;2023-01-19T02:49:40;53.83;;;23.65;;
18304;SDS011;9278;52.156;21.048;2023-01-19T02:52:11;52.67;;;24.37;;
18304;SDS011;9278;52.156;21.048;2023-01-19T02:54:47;57.78;;;25.30;;
18304;SDS011;9278;52.156;21.048;2023-01-19T02:57:29;55.67;;;23.83;;
18304;SDS011;9278;52.156;21.048;2023-01-19T03:00:16;53.00;;;24.20;;
18304;SDS011;9278;52.156;21.048;2023-01-19T03:02:55;51.55;;;24.17;;
18304;SDS011;9278;52.156;21.048;2023-01-19T03:05:33;55.17;;;24.60;;
18304;SDS011;9278;52.156;21.048;2023-01-19T03:08:14;55.42;;;24.08;;
18304;SDS011;9278;52.156;21.048;2023-01-19T03:10:50;55.20;;;24.67;;
18304;SDS011;9278;52.156;21.048;2023-01-19T03:13:25;56.55;;;23.30;;
18304;SDS011;9278;52.156;21.048;2023-01-19T03:16:01;54.17;;;24.17;;
18304;SDS011;9278;52.156;21.048;2023-01-19T03:18:33;54.83;;;23.77;;
18304;SDS011;9278;52.156;21.048;2023-01-19T03:21:04;53.63;;;24.13;;
18304;SDS011;9278;52.156;21.048;2023-01-19T03:23:33;56.55;;;24.92;;
18304;SDS011;9278;52.156;21.048;2023-01-19T03:26:07;55.60;;;25.15;;
18304;SDS011;9278;52.156;21.048;2023-01-19T03:28:40;56.60;;;25.03;;
18304;SDS011;9278;52.156;21.048;2023-01-19T03:31:11;50.75;;;23.77;;
18304;SDS011;9278;52.156;21.048;2023-01-19T03:33:46;54.90;;;25.65;;
18304;SDS011;9278;52.156;21.048;2023-01-19T03:36:18;49.35;;;23.73;;
18304;SDS011;9278;52.156;21.048;2023-01-19T03:38:49;51.53;;;23.20;;
18304;SDS011;9278;52.156;21.048;2023-01-19T03:41:20;49.87;;;22.90;;
18304;SDS011;9278;52.156;21.048;2023-01-19T03:43:51;35.27;;;16.57;;
18304;SDS011;9278;52.156;21.048;2023-01-19T03:46:21;41.37;;;18.87;;
18304;SDS011;9278;52.156;21.048;2023-01-19T03:48:51;39.00;;;17.40;;
18304;SDS011;9278;52.156;21.048;2023-01-19T03:51:20;39.42;;;18.65;;
18304;SDS011;9278;52.156;21.048;2023-01-19T03:53:49;40.83;;;20.63;;
18304;SDS011;9278;52.156;21.048;2023-01-19T03:56:17;43.08;;;20.75;;
18304;SDS011;9278;52.156;21.048;2023-01-19T03:58:48;45.90;;;21.45;;
18304;SDS011;9278;52.156;21.048;2023-01-19T04:01:18;45.58;;;21.65;;
18304;SDS011;9278;52.156;21.048;2023-01-19T04:03:48;48.17;;;22.47;;
18304;SDS011;9278;52.156;21.048;2023-01-19T04:06:17;45.80;;;21.30;;
18304;SDS011;9278;52.156;21.048;2023-01-19T04:08:46;53.85;;;22.50;;
18304;SDS011;9278;52.156;21.048;2023-01-19T04:11:16;49.88;;;22.10;;
18304;SDS011;9278;52.156;21.048;2023-01-19T04:13:44;49.47;;;22.65;;
18304;SDS011;9278;52.156;21.048;2023-01-19T04:16:13;49.25;;;22.40;;
18304;SDS011;9278;52.156;21.048;2023-01-19T04:18:45;52.72;;;22.65;;
18304;SDS011;9278;52.156;21.048;2023-01-19T04:21:14;46.42;;;21.23;;
18304;SDS011;9278;52.156;21.048;2023-01-19T04:23:43;43.45;;;21.42;;
18304;SDS011;9278;52.156;21.048;2023-01-19T04:26:11;49.70;;;22.58;;
18304;SDS011;9278;52.156;21.048;2023-01-19T04:28:40;45.20;;;21.42;;
18304;SDS011;9278;52.156;21.048;2023-01-19T04:31:08;44.10;;;20.95;;
18304;SDS011;9278;52.156;21.048;2023-01-19T04:33:38;41.30;;;20.10;;
18304;SDS011;9278;52.156;21.048;2023-01-19T04:36:07;45.03;;;21.40;;
18304;SDS011;9278;52.156;21.048;2023-01-19T04:38:35;45.47;;;20.60;;
18304;SDS011;9278;52.156;21.048;2023-01-19T04:41:04;46.67;;;21.83;;
18304;SDS011;9278;52.156;21.048;2023-01-19T04:43:32;44.22;;;19.25;;
18304;SDS011;9278;52.156;21.048;2023-01-19T04:46:00;46.38;;;21.58;;
18304;SDS011;9278;52.156;21.048;2023-01-19T04:48:28;44.17;;;21.77;;
18304;SDS011;9278;52.156;21.048;2023-01-19T04:50:58;46.33;;;22.35;;
18304;SDS011;9278;52.156;21.048;2023-01-19T04:53:26;48.88;;;23.00;;
18304;SDS011;9278;52.156;21.048;2023-01-19T04:55:54;48.47;;;22.80;;
18304;SDS011;9278;52.156;21.048;2023-01-19T04:58:25;53.67;;;22.83;;
18304;SDS011;9278;52.156;21.048;2023-01-19T05:00:53;48.50;;;22.70;;
18304;SDS011;9278;52.156;21.048;2023-01-19T05:03:22;49.30;;;23.05;;
18304;SDS011;9278;52.156;21.048;2023-01-19T05:05:51;48.40;;;22.88;;
18304;SDS011;9278;52.156;21.048;2023-01-19T05:08:21;52.60;;;22.42;;
18304;SDS011;9278;52.156;21.048;2023-01-19T05:10:49;49.08;;;23.08;;
18304;SDS011;9278;52.156;21.048;2023-01-19T05:13:18;55.08;;;23.40;;
18304;SDS011;9278;52.156;21.048;2023-01-19T05:15:46;46.00;;;21.98;;
18304;SDS011;9278;52.156;21.048;2023-01-19T05:18:14;49.20;;;22.08;;
18304;SDS011;9278;52.156;21.048;2023-01-19T05:20:42;45.08;;;20.92;;
18304;SDS011;9278;52.156;21.048;2023-01-19T05:23:11;51.72;;;23.10;;
18304;SDS011;9278;52.156;21.048;2023-01-19T05:25:40;47.60;;;21.03;;
18304;SDS011;9278;52.156;21.048;2023-01-19T05:28:10;47.83;;;21.50;;
18304;SDS011;9278;52.156;21.048;2023-01-19T05:30:38;42.58;;;21.00;;
18304;SDS011;9278;52.156;21.048;2023-01-19T05:33:07;39.93;;;19.63;;
18304;SDS011;9278;52.156;21.048;2023-01-19T05:35:35;43.70;;;20.20;;
18304;SDS011;9278;52.156;21.048;2023-01-19T05:38:03;41.03;;;19.60;;
18304;SDS011;9278;52.156;21.048;2023-01-19T05:40:31;43.10;;;19.30;;
18304;SDS011;9278;52.156;21.048;2023-01-19T05:43:01;40.67;;;18.15;;
18304;SDS011;9278;52.156;21.048;2023-01-19T05:45:31;41.08;;;19.30;;
18304;SDS011;9278;52.156;21.048;2023-01-19T05:47:59;36.10;;;18.07;;
18304;SDS011;9278;52.156;21.048;2023-01-19T05:50:28;37.80;;;18.40;;
18304;SDS011;9278;52.156;21.048;2023-01-19T05:52:56;34.28;;;17.48;;
18304;SDS011;9278;52.156;21.048;2023-01-19T05:55:25;36.28;;;17.42;;
18304;SDS011;9278;52.156;21.048;2023-01-19T05:57:54;35.97;;;17.88;;
18304;SDS011;9278;52.156;21.048;2023-01-19T06:00:24;39.13;;;19.10;;
18304;SDS011;9278;52.156;21.048;2023-01-19T06:02:53;40.38;;;17.70;;
18304;SDS011;9278;52.156;21.048;2023-01-19T06:05:21;37.08;;;18.10;;
18304;SDS011;9278;52.156;21.048;2023-01-19T06:07:49;37.58;;;17.60;;
18304;SDS011;9278;52.156;21.048;2023-01-19T06:10:18;39.72;;;18.88;;
18304;SDS011;9278;52.156;21.048;2023-01-19T06:12:47;35.53;;;17.75;;
18304;SDS011;9278;52.156;21.048;2023-01-19T06:15:16;38.65;;;18.15;;
18304;SDS011;9278;52.156;21.048;2023-01-19T06:17:45;39.17;;;17.90;;
18304;SDS011;9278;52.156;21.048;2023-01-19T06:20:13;37.27;;;17.90;;
18304;SDS011;9278;52.156;21.048;2023-01-19T06:22:42;39.13;;;17.60;;
18304;SDS011;9278;52.156;21.048;2023-01-19T06:25:10;39.30;;;18.45;;
18304;SDS011;9278;52.156;21.048;2023-01-19T06:27:41;34.03;;;16.48;;
18304;SDS011;9278;52.156;21.048;2023-01-19T06:30:11;35.45;;;16.48;;
18304;SDS011;9278;52.156;21.048;2023-01-19T06:32:40;38.35;;;17.92;;
18304;SDS011;9278;52.156;21.048;2023-01-19T06:35:10;35.28;;;16.35;;
18304;SDS011;9278;52.156;21.048;2023-01-19T06:37:38;40.30;;;19.63;;
18304;SDS011;9278;52.156;21.048;2023-01-19T06:40:08;33.83;;;16.52;;
18304;SDS011;9278;52.156;21.048;2023-01-19T06:42:39;34.38;;;16.85;;
18304;SDS011;9278;52.156;21.048;2023-01-19T06:45:08;34.42;;;16.77;;
18304;SDS011;9278;52.156;21.048;2023-01-19T06:47:37;37.47;;;16.77;;
18304;SDS011;9278;52.156;21.048;2023-01-19T06:50:05;36.55;;;17.08;;
18304;SDS011;9278;52.156;21.048;2023-01-19T06:52:35;33.95;;;17.08;;
18304;SDS011;9278;52.156;21.048;2023-01-19T06:55:08;30.42;;;15.70;;
18304;SDS011;9278;52.156;21.048;2023-01-19T06:57:37;31.52;;;15.80;;
18304;SDS011;9278;52.156;21.048;2023-01-19T07:00:06;35.97;;;17.60;;
18304;SDS011;9278;52.156;21.048;2023-01-19T07:02:35;39.65;;;17.00;;
18304;SDS011;9278;52.156;21.048;2023-01-19T07:05:04;36.05;;;17.50;;
18304;SDS011;9278;52.156;21.048;2023-01-19T07:07:36;37.72;;;17.08;;
18304;SDS011;9278;52.156;21.048;2023-01-19T07:10:05;35.73;;;17.67;;
18304;SDS011;9278;52.156;21.048;2023-01-19T07:12:34;34.72;;;16.77;;
18304;SDS011;9278;52.156;21.048;2023-01-19T07:15:03;35.65;;;16.77;;
18304;SDS011;9278;52.156;21.048;2023-01-19T07:17:32;38.17;;;17.30;;
18304;SDS011;9278;52.156;21.048;2023-01-19T07:20:00;39.55;;;17.52;;
18304;SDS011;9278;52.156;21.048;2023-01-19T07:22:29;35.00;;;16.75;;
18304;SDS011;9278;52.156;21.048;2023-01-19T07:24:59;37.47;;;17.80;;
18304;SDS011;9278;52.156;21.048;2023-01-19T07:27:27;38.70;;;17.23;;
18304;SDS011;9278;52.156;21.048;2023-01-19T07:29:55;35.90;;;16.65;;
18304;SDS011;9278;52.156;21.048;2023-01-19T07:32:23;38.33;;;16.27;;
18304;SDS011;9278;52.156;21.048;2023-01-19T07:34:52;35.67;;;17.17;;
18304;SDS011;9278;52.156;21.048;2023-01-19T07:37:20;32.30;;;15.73;;
18304;SDS011;9278;52.156;21.048;2023-01-19T07:39:49;38.42;;;16.70;;
18304;SDS011;9278;52.156;21.048;2023-01-19T07:42:18;35.50;;;16.13;;
18304;SDS011;9278;52.156;21.048;2023-01-19T07:44:47;34.90;;;15.70;;
18304;SDS011;9278;52.156;21.048;2023-01-19T07:47:15;36.78;;;16.63;;
18304;SDS011;9278;52.156;21.048;2023-01-19T07:49:43;38.55;;;16.38;;
18304;SDS011;9278;52.156;21.048;2023-01-19T07:52:12;34.78;;;17.15;;
18304;SDS011;9278;52.156;21.048;2023-01-19T07:54:40;32.75;;;16.48;;
18304;SDS011;9278;52.156;21.048;2023-01-19T07:57:08;33.45;;;15.75;;
18304;SDS011;9278;52.156;21.048;2023-01-19T07:59:38;36.83;;;16.85;;
18304;SDS011;9278;52.156;21.048;2023-01-19T08:02:07;37.35;;;17.85;;
18304;SDS011;9278;52.156;21.048;2023-01-19T08:04:36;38.80;;;16.50;;
18304;SDS011;9278;52.156;21.048;2023-01-19T08:07:04;33.58;;;17.30;;
18304;SDS011;9278;52.156;21.048;2023-01-19T08:09:33;38.55;;;16.98;;
18304;SDS011;9278;52.156;21.048;2023-01-19T08:12:01;37.45;;;17.75;;
18304;SDS011;9278;52.156;21.048;2023-01-19T08:14:29;35.42;;;16.00;;
18304;SDS011;9278;52.156;21.048;2023-01-19T08:16:59;33.05;;;16.73;;
18304;SDS011;9278;52.156;21.048;2023-01-19T08:19:28;35.13;;;16.95;;
18304;SDS011;9278;52.156;21.048;2023-01-19T08:21:56;39.05;;;17.67;;
18304;SDS011;9278;52.156;21.048;2023-01-19T08:24:25;37.77;;;17.73;;
18304;SDS011;9278;52.156;21.048;2023-01-19T08:26:57;35.72;;;16.65;;
18304;SDS011;9278;52.156;21.048;2023-01-19T08:29:26;36.63;;;17.20;;
18304;SDS011;9278;52.156;21.048;2023-01-19T08:31:56;35.88;;;16.75;;
18304;SDS011;9278;52.156;21.048;2023-01-19T08:34:28;35.88;;;17.80;;
18304;SDS011;9278;52.156;21.048;2023-01-19T08:36:57;36.55;;;17.23;;
18304;SDS011;9278;52.156;21.048;2023-01-19T08:39:26;37.78;;;18.67;;
18304;SDS011;9278;52.156;21.048;2023-01-19T08:41:54;38.17;;;18.40;;
18304;SDS011;9278;52.156;21.048;2023-01-19T08:44:23;38.13;;;17.15;;
18304;SDS011;9278;52.156;21.048;2023-01-19T08:46:51;33.70;;;17.10;;
18304;SDS011;9278;52.156;21.048;2023-01-19T08:49:20;33.08;;;16.45;;
18304;SDS011;9278;52.156;21.048;2023-01-19T08:51:49;37.22;;;17.98;;
18304;SDS011;9278;52.156;21.048;2023-01-19T08:54:18;36.55;;;17.77;;
18304;SDS011;9278;52.156;21.048;2023-01-19T08:56:47;39.42;;;17.25;;
18304;SDS011;9278;52.156;21.048;2023-01-19T08:59:15;34.92;;;17.17;;
18304;SDS011;9278;52.156;21.048;2023-01-19T09:01:44;34.50;;;17.38;;
18304;SDS011;9278;52.156;21.048;2023-01-19T09:04:12;36.05;;;17.25;;
18304;SDS011;9278;52.156;21.048;2023-01-19T09:06:40;34.35;;;16.95;;
18304;SDS011;9278;52.156;21.048;2023-01-19T09:09:10;33.28;;;16.75;;
18304;SDS011;9278;52.156;21.048;2023-01-19T09:11:38;35.20;;;16.25;;
18304;SDS011;9278;52.156;21.048;2023-01-19T09:14:07;33.35;;;17.02;;
18304;SDS011;9278;52.156;21.048;2023-01-19T09:16:36;33.30;;;16.40;;
18304;SDS011;9278;52.156;21.048;2023-01-19T09:19:04;35.55;;;16.80;;
18304;SDS011;9278;52.156;21.048;2023-01-19T09:21:34;33.58;;;16.38;;
18304;SDS011;9278;52.156;21.048;2023-01-19T09:24:03;30.52;;;14.95;;
18304;SDS011;9278;52.156;21.048;2023-01-19T09:26:33;31.05;;;15.05;;
18304;SDS011;9278;52.156;21.048;2023-01-19T09:29:02;30.48;;;15.30;;
18304;SDS011;9278;52.156;21.048;2023-01-19T09:31:30;30.17;;;14.32;;
18304;SDS011;9278;52.156;21.048;2023-01-19T09:33:58;35.95;;;16.35;;
18304;SDS011;9278;52.156;21.048;2023-01-19T09:36:27;29.05;;;14.60;;
18304;SDS011;9278;52.156;21.048;2023-01-19T09:38:55;31.98;;;15.02;;
18304;SDS011;9278;52.156;21.048;2023-01-19T09:41:23;30.92;;;15.45;;
18304;SDS011;9278;52.156;21.048;2023-01-19T09:43:55;28.25;;;14.15;;
18304;SDS011;9278;52.156;21.048;2023-01-19T09:46:26;25.67;;;13.63;;
18304;SDS011;9278;52.156;21.048;2023-01-19T09:49:00;23.90;;;12.30;;
18304;SDS011;9278;52.156;21.048;2023-01-19T09:51:32;28.08;;;13.00;;
18304;SDS011;9278;52.156;21.048;2023-01-19T09:54:06;26.55;;;12.57;;
18304;SDS011;9278;52.156;21.048;2023-01-19T09:56:40;26.15;;;12.85;;
18304;SDS011;9278;52.156;21.048;2023-01-19T09:59:16;23.50;;;11.98;;
18304;SDS011;9278;52.156;21.048;2023-01-19T10:01:58;23.88;;;12.40;;
18304;SDS011;9278;52.156;21.048;2023-01-19T10:04:33;25.27;;;12.43;;
18304;SDS011;9278;52.156;21.048;2023-01-19T10:07:11;26.52;;;13.65;;
18304;SDS011;9278;52.156;21.048;2023-01-19T10:09:54;25.02;;;12.32;;
18304;SDS011;9278;52.156;21.048;2023-01-19T10:12:37;26.25;;;12.02;;
18304;SDS011;9278;52.156;21.048;2023-01-19T10:15:20;23.88;;;12.25;;
18304;SDS011;9278;52.156;21.048;2023-01-19T10:18:04;20.92;;;11.02;;
18304;SDS011;9278;52.156;21.048;2023-01-19T10:20:39;21.55;;;10.65;;
18304;SDS011;9278;52.156;21.048;2023-01-19T10:23:15;20.20;;;10.93;;
18304;SDS011;9278;52.156;21.048;2023-01-19T10:25:50;22.63;;;11.27;;
18304;SDS011;9278;52.156;21.048;2023-01-19T10:28:19;23.45;;;11.25;;
18304;SDS011;9278;52.156;21.048;2023-01-19T10:30:53;19.95;;;10.35;;
18304;SDS011;9278;52.156;21.048;2023-01-19T10:33:22;21.02;;;11.23;;
18304;SDS011;9278;52.156;21.048;2023-01-19T10:35:51;24.08;;;11.70;;
18304;SDS011;9278;52.156;21.048;2023-01-19T10:38:19;20.42;;;10.73;;
18304;SDS011;9278;52.156;21.048;2023-01-19T10:40:50;21.85;;;11.48;;
18304;SDS011;9278;52.156;21.048;2023-01-19T10:43:40;23.85;;;11.70;;
18304;SDS011;9278;52.156;21.048;2023-01-19T10:46:23;22.63;;;11.13;;
18304;SDS011;9278;52.156;21.048;2023-01-19T10:49:03;22.98;;;11.00;;
18304;SDS011;9278;52.156;21.048;2023-01-19T10:51:32;22.23;;;11.10;;
18304;SDS011;9278;52.156;21.048;2023-01-19T10:54:11;19.25;;;10.30;;
18304;SDS011;9278;52.156;21.048;2023-01-19T10:56:40;19.33;;;10.70;;
18304;SDS011;9278;52.156;21.048;2023-01-19T10:59:27;22.15;;;10.82;;
18304;SDS011;9278;52.156;21.048;2023-01-19T11:04:49;23.10;;;11.48;;
18304;SDS011;9278;52.156;21.048;2023-01-19T11:07:20;21.65;;;11.43;;
18304;SDS011;9278;52.156;21.048;2023-01-19T11:09:59;20.40;;;10.60;;
18304;SDS011;9278;52.156;21.048;2023-01-19T11:12:39;22.15;;;10.63;;
18304;SDS011;9278;52.156;21.048;2023-01-19T11:15:13;21.35;;;10.60;;
18304;SDS011;9278;52.156;21.048;2023-01-19T11:17:44;20.08;;;11.20;;
18304;SDS011;9278;52.156;21.048;2023-01-19T11:20:17;21.50;;;10.98;;
18304;SDS011;9278;52.156;21.048;2023-01-19T11:22:48;22.85;;;11.43;;
18304;SDS011;9278;52.156;21.048;2023-01-19T11:25:31;21.70;;;11.65;;
18304;SDS011;9278;52.156;21.048;2023-01-19T11:28:01;22.65;;;12.30;;
18304;SDS011;9278;52.156;21.048;2023-01-19T11:30:34;25.27;;;12.68;;
18304;SDS011;9278;52.156;21.048;2023-01-19T11:33:04;21.55;;;12.40;;
18304;SDS011;9278;52.156;21.048;2023-01-19T11:35:34;22.13;;;11.80;;
18304;SDS011;9278;52.156;21.048;2023-01-19T11:38:05;23.88;;;12.63;;
18304;SDS011;9278;52.156;21.048;2023-01-19T11:40:34;22.52;;;11.77;;
18304;SDS011;9278;52.156;21.048;2023-01-19T11:43:02;22.15;;;13.00;;
18304;SDS011;9278;52.156;21.048;2023-01-19T11:45:31;21.27;;;12.18;;
18304;SDS011;9278;52.156;21.048;2023-01-19T11:48:01;23.45;;;12.63;;
18304;SDS011;9278;52.156;21.048;2023-01-19T11:50:35;23.50;;;12.57;;
18304;SDS011;9278;52.156;21.048;2023-01-19T11:53:10;26.63;;;13.38;;
18304;SDS011;9278;52.156;21.048;2023-01-19T11:55:46;26.02;;;13.15;;
18304;SDS011;9278;52.156;21.048;2023-01-19T11:58:20;25.98;;;13.70;;
18304;SDS011;9278;52.156;21.048;2023-01-19T12:00:48;24.65;;;13.65;;
18304;SDS011;9278;52.156;21.048;2023-01-19T12:03:22;25.75;;;13.32;;
18304;SDS011;9278;52.156;21.048;2023-01-19T12:05:57;25.05;;;13.38;;
18304;SDS011;9278;52.156;21.048;2023-01-19T12:08:28;23.05;;;13.45;;
18304;SDS011;9278;52.156;21.048;2023-01-19T12:11:00;24.48;;;13.25;;
18304;SDS011;9278;52.156;21.048;2023-01-19T12:13:30;28.45;;;14.30;;
18304;SDS011;9278;52.156;21.048;2023-01-19T12:16:01;28.25;;;14.73;;
18304;SDS011;9278;52.156;21.048;2023-01-19T12:18:36;28.02;;;13.98;;
18304;SDS011;9278;52.156;21.048;2023-01-19T12:21:07;29.75;;;14.25;;
18304;SDS011;9278;52.156;21.048;2023-01-19T12:23:39;27.05;;;13.90;;
18304;SDS011;9278;52.156;21.048;2023-01-19T12:28:59;28.95;;;14.50;;
18304;SDS011;9278;52.156;21.048;2023-01-19T12:31:33;28.40;;;15.05;;
18304;SDS011;9278;52.156;21.048;2023-01-19T12:37:05;30.05;;;14.25;;
18304;SDS011;9278;52.156;21.048;2023-01-19T12:39:55;24.35;;;13.07;;
18304;SDS011;9278;52.156;21.048;2023-01-19T12:42:25;25.50;;;14.20;;
18304;SDS011;9278;52.156;21.048;2023-01-19T12:45:03;27.58;;;14.00;;
18304;SDS011;9278;52.156;21.048;2023-01-19T12:47:33;29.67;;;14.90;;
18304;SDS011;9278;52.156;21.048;2023-01-19T12:50:04;30.25;;;14.70;;
18304;SDS011;9278;52.156;21.048;2023-01-19T12:52:40;31.15;;;14.63;;
18304;SDS011;9278;52.156;21.048;2023-01-19T12:55:20;32.22;;;15.43;;
18304;SDS011;9278;52.156;21.048;2023-01-19T12:58:01;28.92;;;15.13;;
18304;SDS011;9278;52.156;21.048;2023-01-19T13:00:33;29.65;;;14.50;;
18304;SDS011;9278;52.156;21.048;2023-01-19T13:03:41;35.17;;;15.52;;
18304;SDS011;9278;52.156;21.048;2023-01-19T13:06:13;34.40;;;15.63;;
18304;SDS011;9278;52.156;21.048;2023-01-19T13:11:25;34.25;;;15.60;;
18304;SDS011;9278;52.156;21.048;2023-01-19T13:17:01;34.17;;;16.50;;
18304;SDS011;9278;52.156;21.048;2023-01-19T13:20:05;34.58;;;16.67;;
18304;SDS011;9278;52.156;21.048;2023-01-19T13:28:40;41.10;;;18.95;;
18304;SDS011;9278;52.156;21.048;2023-01-19T13:31:11;44.83;;;20.45;;
18304;SDS011;9278;52.156;21.048;2023-01-19T13:33:47;46.22;;;20.17;;
18304;SDS011;9278;52.156;21.048;2023-01-19T13:36:20;43.58;;;19.73;;
18304;SDS011;9278;52.156;21.048;2023-01-19T13:38:53;45.35;;;19.60;;
18304;SDS011;9278;52.156;21.048;2023-01-19T13:41:24;46.28;;;20.73;;
18304;SDS011;9278;52.156;21.048;2023-01-19T13:43:57;42.97;;;19.90;;
18304;SDS011;9278;52.156;21.048;2023-01-19T13:46:28;44.92;;;19.65;;
18304;SDS011;9278;52.156;21.048;2023-01-19T13:49:00;45.28;;;19.83;;
18304;SDS011;9278;52.156;21.048;2023-01-19T13:51:31;46.38;;;19.58;;
18304;SDS011;9278;52.156;21.048;2023-01-19T13:54:00;43.78;;;18.75;;
18304;SDS011;9278;52.156;21.048;2023-01-19T13:56:29;40.90;;;18.80;;
18304;SDS011;9278;52.156;21.048;2023-01-19T13:58:58;38.50;;;18.27;;
18304;SDS011;9278;52.156;21.048;2023-01-19T14:01:38;41.00;;;17.83;;
18304;SDS011;9278;52.156;21.048;2023-01-19T14:04:24;38.28;;;18.60;;
18304;SDS011;9278;52.156;21.048;2023-01-19T14:06:54;37.25;;;17.08;;
18304;SDS011;9278;52.156;21.048;2023-01-19T14:09:26;39.30;;;19.00;;
18304;SDS011;9278;52.156;21.048;2023-01-19T14:12:05;36.22;;;17.27;;
18304;SDS011;9278;52.156;21.048;2023-01-19T14:14:37;40.22;;;18.15;;
18304;SDS011;9278;52.156;21.048;2023-01-19T14:17:22;39.25;;;18.02;;
18304;SDS011;9278;52.156;21.048;2023-01-19T14:19:52;39.08;;;18.88;;
18304;SDS011;9278;52.156;21.048;2023-01-19T14:22:36;38.90;;;18.45;;
18304;SDS011;9278;52.156;21.048;2023-01-19T14:28:24;39.92;;;17.98;;
18304;SDS011;9278;52.156;21.048;2023-01-19T14:30:54;37.95;;;17.73;;
18304;SDS011;9278;52.156;21.048;2023-01-19T14:33:33;37.40;;;18.05;;
18304;SDS011;9278;52.156;21.048;2023-01-19T14:36:09;42.33;;;18.92;;
18304;SDS011;9278;52.156;21.048;2023-01-19T14:38:47;40.85;;;18.40;;
18304;SDS011;9278;52.156;21.048;2023-01-19T14:41:23;38.70;;;17.70;;
18304;SDS011;9278;52.156;21.048;2023-01-19T14:43:53;43.75;;;17.85;;
18304;SDS011;9278;52.156;21.048;2023-01-19T14:46:23;39.70;;;17.48;;
18304;SDS011;9278;52.156;21.048;2023-01-19T14:49:00;38.30;;;17.02;;
18304;SDS011;9278;52.156;21.048;2023-01-19T14:51:30;35.40;;;16.70;;
18304;SDS011;9278;52.156;21.048;2023-01-19T14:53:59;33.95;;;17.15;;
18304;SDS011;9278;52.156;21.048;2023-01-19T14:56:31;37.60;;;17.00;;
18304;SDS011;9278;52.156;21.048;2023-01-19T14:59:00;36.58;;;16.63;;
18304;SDS011;9278;52.156;21.048;2023-01-19T15:01:28;33.72;;;16.08;;
18304;SDS011;9278;52.156;21.048;2023-01-19T15:03:57;35.67;;;17.02;;
18304;SDS011;9278;52.156;21.048;2023-01-19T15:06:26;34.63;;;16.73;;
18304;SDS011;9278;52.156;21.048;2023-01-19T15:08:54;37.25;;;17.20;;